sensor_id;sensor_type;location;lat;lon;timestamp;P1;durP1;ratioP1;P2;durP2;ratioP2
13012;SDS011;22580;57.670;12.006;2023-07-20T00:01:53;4.00;;;1.42;;
13012;SDS011;22580;57.670;12.006;2023-07-20T00:04:22;2.38;;;1.50;;
13012;SDS011;22580;57.670;12.006;2023-07-20T00:06:49;2.35;;;1.30;;
13012;SDS011;22580;57.670;12.006;2023-07-20T00:09:15;1.85;;;1.20;;
13012;SDS011;22580;57.670;12.006;2023-07-20T00:11:48;4.13;;;1.50;;
13012;SDS011;22580;57.670;12.006;2023-07-20T00:14:16;2.90;;;1.30;;
13012;SDS011;22580;57.670;12.006;2023-07-20T00:16:44;1.20;;;0.88;;
13012;SDS011;22580;57.670;12.006;2023-07-20T00:19:11;1.63;;;0.85;;
13012;SDS011;22580;57.670;12.006;2023-07-20T00:21:40;1.35;;;1.00;;
13012;SDS011;22580;57.670;12.006;2023-07-20T00:24:07;1.67;;;1.00;;
13012;SDS011;22580;57.670;12.006;2023-07-20T00:26:35;1.63;;;0.95;;
13012;SDS011;22580;57.670;12.006;2023-07-20T00:29:02;1.25;;;0.80;;
13012;SDS011;22580;57.670;12.006;2023-07-20T00:31:29;1.30;;;1.10;;
13012;SDS011;22580;57.670;12.006;2023-07-20T00:33:56;1.67;;;1.10;;
13012;SDS011;22580;57.670;12.006;2023-07-20T00:36:23;1.30;;;1.10;;
13012;SDS011;22580;57.670;12.006;2023-07-20T00:38:51;1.48;;;0.95;;
13012;SDS011;22580;57.670;12.006;2023-07-20T00:41:18;3.50;;;1.52;;
13012;SDS011;22580;57.670;12.006;2023-07-20T00:43:45;2.47;;;1.25;;
13012;SDS011;22580;57.670;12.006;2023-07-20T00:46:12;1.55;;;1.15;;
13012;SDS011;22580;57.670;12.006;2023-07-20T00:48:40;1.17;;;0.82;;
13012;SDS011;22580;57.670;12.006;2023-07-20T00:51:08;0.60;;;0.60;;
13012;SDS011;22580;57.670;12.006;2023-07-20T00:53:37;1.17;;;0.73;;
13012;SDS011;22580;57.670;12.006;2023-07-20T00:56:05;1.70;;;1.10;;
13012;SDS011;22580;57.670;12.006;2023-07-20T00:58:34;1.20;;;1.00;;
13012;SDS011;22580;57.670;12.006;2023-07-20T01:01:01;1.40;;;0.80;;
13012;SDS011;22580;57.670;12.006;2023-07-20T01:03:28;1.00;;;0.80;;
13012;SDS011;22580;57.670;12.006;2023-07-20T01:05:57;1.02;;;0.60;;
13012;SDS011;22580;57.670;12.006;2023-07-20T01:08:32;1.05;;;0.60;;
13012;SDS011;22580;57.670;12.006;2023-07-20T01:11:06;0.73;;;0.68;;
13012;SDS011;22580;57.670;12.006;2023-07-20T01:13:43;1.63;;;1.10;;
13012;SDS011;22580;57.670;12.006;2023-07-20T01:16:11;1.67;;;0.93;;
13012;SDS011;22580;57.670;12.006;2023-07-20T01:18:38;1.08;;;0.90;;
13012;SDS011;22580;57.670;12.006;2023-07-20T01:21:06;1.58;;;0.90;;
13012;SDS011;22580;57.670;12.006;2023-07-20T01:29:50;1.52;;;1.00;;
13012;SDS011;22580;57.670;12.006;2023-07-20T01:32:31;1.20;;;0.90;;
13012;SDS011;22580;57.670;12.006;2023-07-20T01:34:59;1.17;;;0.80;;
13012;SDS011;22580;57.670;12.006;2023-07-20T01:37:28;1.67;;;0.82;;
13012;SDS011;22580;57.670;12.006;2023-07-20T01:39:58;2.55;;;0.88;;
13012;SDS011;22580;57.670;12.006;2023-07-20T01:42:26;0.85;;;0.70;;
13012;SDS011;22580;57.670;12.006;2023-07-20T01:44:53;1.05;;;0.52;;
13012;SDS011;22580;57.670;12.006;2023-07-20T01:47:20;1.17;;;0.90;;
13012;SDS011;22580;57.670;12.006;2023-07-20T01:49:49;3.42;;;1.00;;
13012;SDS011;22580;57.670;12.006;2023-07-20T01:52:15;2.47;;;0.98;;
13012;SDS011;22580;57.670;12.006;2023-07-20T01:54:42;2.92;;;0.98;;
13012;SDS011;22580;57.670;12.006;2023-07-20T01:57:09;2.33;;;1.08;;
13012;SDS011;22580;57.670;12.006;2023-07-20T01:59:36;0.82;;;0.73;;
13012;SDS011;22580;57.670;12.006;2023-07-20T02:02:03;2.47;;;0.90;;
13012;SDS011;22580;57.670;12.006;2023-07-20T02:04:30;2.13;;;0.80;;
13012;SDS011;22580;57.670;12.006;2023-07-20T02:06:59;1.13;;;0.80;;
13012;SDS011;22580;57.670;12.006;2023-07-20T02:09:26;0.90;;;0.80;;
13012;SDS011;22580;57.670;12.006;2023-07-20T02:11:53;0.60;;;0.60;;
13012;SDS011;22580;57.670;12.006;2023-07-20T02:14:19;0.80;;;0.50;;
13012;SDS011;22580;57.670;12.006;2023-07-20T02:16:47;0.77;;;0.50;;
13012;SDS011;22580;57.670;12.006;2023-07-20T02:19:16;0.73;;;0.70;;
13012;SDS011;22580;57.670;12.006;2023-07-20T02:21:44;1.80;;;1.00;;
13012;SDS011;22580;57.670;12.006;2023-07-20T02:24:13;1.30;;;0.90;;
13012;SDS011;22580;57.670;12.006;2023-07-20T02:26:40;0.95;;;0.80;;
13012;SDS011;22580;57.670;12.006;2023-07-20T02:29:07;2.45;;;0.75;;
13012;SDS011;22580;57.670;12.006;2023-07-20T02:31:36;1.35;;;0.88;;
13012;SDS011;22580;57.670;12.006;2023-07-20T02:34:04;0.63;;;0.63;;
13012;SDS011;22580;57.670;12.006;2023-07-20T02:36:33;1.17;;;0.88;;
13012;SDS011;22580;57.670;12.006;2023-07-20T02:39:00;0.80;;;0.60;;
13012;SDS011;22580;57.670;12.006;2023-07-20T02:41:30;0.85;;;0.60;;
13012;SDS011;22580;57.670;12.006;2023-07-20T02:43:57;0.55;;;0.52;;
13012;SDS011;22580;57.670;12.006;2023-07-20T02:46:24;0.82;;;0.50;;
13012;SDS011;22580;57.670;12.006;2023-07-20T02:48:51;1.67;;;0.80;;
13012;SDS011;22580;57.670;12.006;2023-07-20T02:51:18;0.93;;;0.77;;
13012;SDS011;22580;57.670;12.006;2023-07-20T02:53:45;0.68;;;0.68;;
13012;SDS011;22580;57.670;12.006;2023-07-20T02:56:12;0.55;;;0.55;;
13012;SDS011;22580;57.670;12.006;2023-07-20T02:58:41;0.57;;;0.50;;
13012;SDS011;22580;57.670;12.006;2023-07-20T03:01:10;0.95;;;0.80;;
13012;SDS011;22580;57.670;12.006;2023-07-20T03:03:38;1.27;;;0.60;;
13012;SDS011;22580;57.670;12.006;2023-07-20T03:06:05;0.93;;;0.50;;
13012;SDS011;22580;57.670;12.006;2023-07-20T03:08:34;0.95;;;0.60;;
13012;SDS011;22580;57.670;12.006;2023-07-20T03:11:02;0.60;;;0.60;;
13012;SDS011;22580;57.670;12.006;2023-07-20T03:13:28;0.52;;;0.40;;
13012;SDS011;22580;57.670;12.006;2023-07-20T03:15:57;0.65;;;0.50;;
13012;SDS011;22580;57.670;12.006;2023-07-20T03:18:24;0.50;;;0.50;;
13012;SDS011;22580;57.670;12.006;2023-07-20T03:20:51;0.88;;;0.65;;
13012;SDS011;22580;57.670;12.006;2023-07-20T03:23:18;0.57;;;0.50;;
13012;SDS011;22580;57.670;12.006;2023-07-20T03:25:45;1.20;;;1.00;;
13012;SDS011;22580;57.670;12.006;2023-07-20T03:28:12;0.88;;;0.73;;
13012;SDS011;22580;57.670;12.006;2023-07-20T03:30:40;1.02;;;0.70;;
13012;SDS011;22580;57.670;12.006;2023-07-20T03:33:09;1.35;;;0.70;;
13012;SDS011;22580;57.670;12.006;2023-07-20T03:35:36;0.50;;;0.50;;
13012;SDS011;22580;57.670;12.006;2023-07-20T03:38:03;0.68;;;0.60;;
13012;SDS011;22580;57.670;12.006;2023-07-20T03:40:30;0.55;;;0.40;;
13012;SDS011;22580;57.670;12.006;2023-07-20T03:42:57;0.90;;;0.68;;
13012;SDS011;22580;57.670;12.006;2023-07-20T03:45:30;0.57;;;0.55;;
13012;SDS011;22580;57.670;12.006;2023-07-20T03:47:57;0.40;;;0.32;;
13012;SDS011;22580;57.670;12.006;2023-07-20T03:50:28;0.20;;;0.20;;
13012;SDS011;22580;57.670;12.006;2023-07-20T03:52:55;0.70;;;0.40;;
13012;SDS011;22580;57.670;12.006;2023-07-20T03:55:22;0.82;;;0.52;;
13012;SDS011;22580;57.670;12.006;2023-07-20T03:57:49;0.28;;;0.28;;
13012;SDS011;22580;57.670;12.006;2023-07-20T04:00:16;1.20;;;0.55;;
13012;SDS011;22580;57.670;12.006;2023-07-20T04:02:43;0.75;;;0.52;;
13012;SDS011;22580;57.670;12.006;2023-07-20T04:05:10;0.50;;;0.50;;
13012;SDS011;22580;57.670;12.006;2023-07-20T04:07:39;0.45;;;0.45;;
13012;SDS011;22580;57.670;12.006;2023-07-20T04:10:06;0.75;;;0.57;;
13012;SDS011;22580;57.670;12.006;2023-07-20T04:12:34;0.57;;;0.43;;
13012;SDS011;22580;57.670;12.006;2023-07-20T04:15:01;0.80;;;0.60;;
13012;SDS011;22580;57.670;12.006;2023-07-20T04:17:29;1.35;;;0.70;;
13012;SDS011;22580;57.670;12.006;2023-07-20T04:19:56;0.88;;;0.60;;
13012;SDS011;22580;57.670;12.006;2023-07-20T04:22:23;0.60;;;0.60;;
13012;SDS011;22580;57.670;12.006;2023-07-20T04:24:51;0.80;;;0.70;;
13012;SDS011;22580;57.670;12.006;2023-07-20T04:27:18;0.70;;;0.60;;
13012;SDS011;22580;57.670;12.006;2023-07-20T04:29:45;0.75;;;0.40;;
13012;SDS011;22580;57.670;12.006;2023-07-20T04:32:12;0.88;;;0.40;;
13012;SDS011;22580;57.670;12.006;2023-07-20T04:34:39;0.50;;;0.50;;
13012;SDS011;22580;57.670;12.006;2023-07-20T04:37:06;0.85;;;0.35;;
13012;SDS011;22580;57.670;12.006;2023-07-20T04:39:33;0.82;;;0.40;;
13012;SDS011;22580;57.670;12.006;2023-07-20T04:42:02;0.50;;;0.30;;
13012;SDS011;22580;57.670;12.006;2023-07-20T04:44:30;0.30;;;0.30;;
13012;SDS011;22580;57.670;12.006;2023-07-20T04:46:56;0.55;;;0.30;;
13012;SDS011;22580;57.670;12.006;2023-07-20T04:49:23;1.67;;;0.50;;
13012;SDS011;22580;57.670;12.006;2023-07-20T04:51:51;0.40;;;0.40;;
13012;SDS011;22580;57.670;12.006;2023-07-20T04:54:18;0.38;;;0.38;;
13012;SDS011;22580;57.670;12.006;2023-07-20T04:56:45;0.57;;;0.50;;
13012;SDS011;22580;57.670;12.006;2023-07-20T04:59:13;0.70;;;0.50;;
13012;SDS011;22580;57.670;12.006;2023-07-20T05:01:40;0.57;;;0.50;;
13012;SDS011;22580;57.670;12.006;2023-07-20T05:04:07;0.70;;;0.60;;
13012;SDS011;22580;57.670;12.006;2023-07-20T05:06:34;0.55;;;0.40;;
13012;SDS011;22580;57.670;12.006;2023-07-20T05:09:01;0.45;;;0.45;;
13012;SDS011;22580;57.670;12.006;2023-07-20T05:11:29;0.43;;;0.40;;
13012;SDS011;22580;57.670;12.006;2023-07-20T05:13:56;0.55;;;0.50;;
13012;SDS011;22580;57.670;12.006;2023-07-20T05:16:24;1.42;;;0.70;;
13012;SDS011;22580;57.670;12.006;2023-07-20T05:18:51;1.13;;;0.63;;
13012;SDS011;22580;57.670;12.006;2023-07-20T05:21:18;1.35;;;0.45;;
13012;SDS011;22580;57.670;12.006;2023-07-20T05:23:45;0.30;;;0.30;;
13012;SDS011;22580;57.670;12.006;2023-07-20T05:26:12;0.35;;;0.32;;
13012;SDS011;22580;57.670;12.006;2023-07-20T05:28:39;0.65;;;0.38;;
13012;SDS011;22580;57.670;12.006;2023-07-20T05:31:06;0.55;;;0.43;;
13012;SDS011;22580;57.670;12.006;2023-07-20T05:33:34;0.60;;;0.40;;
13012;SDS011;22580;57.670;12.006;2023-07-20T05:36:01;0.70;;;0.35;;
13012;SDS011;22580;57.670;12.006;2023-07-20T05:38:29;0.98;;;0.60;;
13012;SDS011;22580;57.670;12.006;2023-07-20T05:40:58;1.10;;;0.50;;
13012;SDS011;22580;57.670;12.006;2023-07-20T05:43:27;0.98;;;0.40;;
13012;SDS011;22580;57.670;12.006;2023-07-20T05:45:54;1.58;;;0.57;;
13012;SDS011;22580;57.670;12.006;2023-07-20T05:48:21;0.60;;;0.57;;
13012;SDS011;22580;57.670;12.006;2023-07-20T05:50:49;0.55;;;0.40;;
13012;SDS011;22580;57.670;12.006;2023-07-20T05:53:16;1.15;;;0.50;;
13012;SDS011;22580;57.670;12.006;2023-07-20T05:55:43;0.85;;;0.40;;
13012;SDS011;22580;57.670;12.006;2023-07-20T05:58:10;0.60;;;0.45;;
13012;SDS011;22580;57.670;12.006;2023-07-20T06:00:37;0.75;;;0.40;;
13012;SDS011;22580;57.670;12.006;2023-07-20T06:03:04;0.88;;;0.40;;
13012;SDS011;22580;57.670;12.006;2023-07-20T06:05:31;0.40;;;0.38;;
13012;SDS011;22580;57.670;12.006;2023-07-20T06:08:00;1.17;;;0.50;;
13012;SDS011;22580;57.670;12.006;2023-07-20T06:10:27;0.63;;;0.40;;
13012;SDS011;22580;57.670;12.006;2023-07-20T06:12:53;0.47;;;0.40;;
13012;SDS011;22580;57.670;12.006;2023-07-20T06:15:25;1.35;;;0.52;;
13012;SDS011;22580;57.670;12.006;2023-07-20T06:17:53;1.05;;;0.43;;
13012;SDS011;22580;57.670;12.006;2023-07-20T06:20:21;2.75;;;0.90;;
13012;SDS011;22580;57.670;12.006;2023-07-20T06:22:48;1.00;;;0.50;;
13012;SDS011;22580;57.670;12.006;2023-07-20T06:25:17;0.60;;;0.47;;
13012;SDS011;22580;57.670;12.006;2023-07-20T06:27:44;1.63;;;0.40;;
13012;SDS011;22580;57.670;12.006;2023-07-20T06:30:11;0.43;;;0.40;;
13012;SDS011;22580;57.670;12.006;2023-07-20T06:32:38;0.50;;;0.40;;
13012;SDS011;22580;57.670;12.006;2023-07-20T06:35:05;1.35;;;0.47;;
13012;SDS011;22580;57.670;12.006;2023-07-20T06:37:33;1.88;;;0.40;;
13012;SDS011;22580;57.670;12.006;2023-07-20T06:40:01;0.85;;;0.38;;
13012;SDS011;22580;57.670;12.006;2023-07-20T06:42:30;0.95;;;0.57;;
13012;SDS011;22580;57.670;12.006;2023-07-20T06:44:57;1.33;;;0.50;;
13012;SDS011;22580;57.670;12.006;2023-07-20T06:47:24;1.15;;;0.30;;
13012;SDS011;22580;57.670;12.006;2023-07-20T06:49:51;1.00;;;0.50;;
13012;SDS011;22580;57.670;12.006;2023-07-20T06:52:18;1.23;;;0.50;;
13012;SDS011;22580;57.670;12.006;2023-07-20T06:54:45;0.40;;;0.40;;
13012;SDS011;22580;57.670;12.006;2023-07-20T06:57:12;1.50;;;0.60;;
13012;SDS011;22580;57.670;12.006;2023-07-20T06:59:40;0.73;;;0.30;;
13012;SDS011;22580;57.670;12.006;2023-07-20T07:02:07;0.77;;;0.40;;
13012;SDS011;22580;57.670;12.006;2023-07-20T07:04:35;1.27;;;0.60;;
13012;SDS011;22580;57.670;12.006;2023-07-20T07:07:02;1.05;;;0.43;;
13012;SDS011;22580;57.670;12.006;2023-07-20T07:09:29;1.48;;;0.43;;
13012;SDS011;22580;57.670;12.006;2023-07-20T07:11:56;0.38;;;0.30;;
13012;SDS011;22580;57.670;12.006;2023-07-20T07:14:23;0.50;;;0.30;;
13012;SDS011;22580;57.670;12.006;2023-07-20T07:16:51;0.35;;;0.30;;
13012;SDS011;22580;57.670;12.006;2023-07-20T07:19:18;0.47;;;0.35;;
13012;SDS011;22580;57.670;12.006;2023-07-20T07:21:45;0.85;;;0.50;;
13012;SDS011;22580;57.670;12.006;2023-07-20T07:24:12;0.55;;;0.30;;
13012;SDS011;22580;57.670;12.006;2023-07-20T07:26:39;0.75;;;0.30;;
13012;SDS011;22580;57.670;12.006;2023-07-20T07:29:10;2.88;;;0.70;;
13012;SDS011;22580;57.670;12.006;2023-07-20T07:31:39;0.52;;;0.22;;
13012;SDS011;22580;57.670;12.006;2023-07-20T07:34:07;1.20;;;0.50;;
13012;SDS011;22580;57.670;12.006;2023-07-20T07:36:34;1.25;;;0.60;;
13012;SDS011;22580;57.670;12.006;2023-07-20T07:39:02;1.35;;;0.45;;
13012;SDS011;22580;57.670;12.006;2023-07-20T07:41:29;0.52;;;0.47;;
13012;SDS011;22580;57.670;12.006;2023-07-20T07:43:57;0.73;;;0.40;;
13012;SDS011;22580;57.670;12.006;2023-07-20T07:46:24;0.73;;;0.40;;
13012;SDS011;22580;57.670;12.006;2023-07-20T07:48:51;0.88;;;0.40;;
13012;SDS011;22580;57.670;12.006;2023-07-20T07:51:19;1.45;;;0.85;;
13012;SDS011;22580;57.670;12.006;2023-07-20T07:53:46;0.43;;;0.40;;
13012;SDS011;22580;57.670;12.006;2023-07-20T07:56:14;0.43;;;0.38;;
13012;SDS011;22580;57.670;12.006;2023-07-20T07:58:42;1.35;;;0.73;;
13012;SDS011;22580;57.670;12.006;2023-07-20T08:01:09;0.45;;;0.40;;
13012;SDS011;22580;57.670;12.006;2023-07-20T08:03:38;1.65;;;0.55;;
13012;SDS011;22580;57.670;12.006;2023-07-20T08:06:05;0.82;;;0.50;;
13012;SDS011;22580;57.670;12.006;2023-07-20T08:08:35;0.35;;;0.35;;
13012;SDS011;22580;57.670;12.006;2023-07-20T08:11:04;0.52;;;0.40;;
13012;SDS011;22580;57.670;12.006;2023-07-20T08:13:31;1.45;;;0.63;;
13012;SDS011;22580;57.670;12.006;2023-07-20T08:15:58;1.48;;;0.50;;
13012;SDS011;22580;57.670;12.006;2023-07-20T08:18:27;0.50;;;0.40;;
13012;SDS011;22580;57.670;12.006;2023-07-20T08:20:54;0.47;;;0.30;;
13012;SDS011;22580;57.670;12.006;2023-07-20T08:23:21;0.77;;;0.50;;
13012;SDS011;22580;57.670;12.006;2023-07-20T08:25:49;0.30;;;0.30;;
13012;SDS011;22580;57.670;12.006;2023-07-20T08:28:16;0.40;;;0.40;;
13012;SDS011;22580;57.670;12.006;2023-07-20T08:30:44;1.30;;;0.60;;
13012;SDS011;22580;57.670;12.006;2023-07-20T08:33:13;0.82;;;0.40;;
13012;SDS011;22580;57.670;12.006;2023-07-20T08:35:40;0.43;;;0.40;;
13012;SDS011;22580;57.670;12.006;2023-07-20T08:38:07;1.20;;;0.50;;
13012;SDS011;22580;57.670;12.006;2023-07-20T08:40:38;0.55;;;0.55;;
13012;SDS011;22580;57.670;12.006;2023-07-20T08:43:08;0.77;;;0.60;;
13012;SDS011;22580;57.670;12.006;2023-07-20T08:45:36;0.40;;;0.40;;
13012;SDS011;22580;57.670;12.006;2023-07-20T08:48:05;1.00;;;0.40;;
13012;SDS011;22580;57.670;12.006;2023-07-20T08:50:34;1.60;;;0.60;;
13012;SDS011;22580;57.670;12.006;2023-07-20T08:53:02;0.50;;;0.30;;
13012;SDS011;22580;57.670;12.006;2023-07-20T08:55:30;0.50;;;0.40;;
13012;SDS011;22580;57.670;12.006;2023-07-20T08:57:58;0.85;;;0.30;;
13012;SDS011;22580;57.670;12.006;2023-07-20T09:00:27;0.57;;;0.38;;
13012;SDS011;22580;57.670;12.006;2023-07-20T09:02:54;0.50;;;0.40;;
13012;SDS011;22580;57.670;12.006;2023-07-20T09:05:22;0.60;;;0.50;;
13012;SDS011;22580;57.670;12.006;2023-07-20T09:07:51;0.40;;;0.30;;
13012;SDS011;22580;57.670;12.006;2023-07-20T09:10:19;0.50;;;0.30;;
13012;SDS011;22580;57.670;12.006;2023-07-20T09:12:46;1.55;;;0.30;;
13012;SDS011;22580;57.670;12.006;2023-07-20T09:15:14;0.70;;;0.20;;
13012;SDS011;22580;57.670;12.006;2023-07-20T09:17:49;0.35;;;0.30;;
13012;SDS011;22580;57.670;12.006;2023-07-20T09:20:19;1.08;;;0.40;;
13012;SDS011;22580;57.670;12.006;2023-07-20T09:22:47;0.68;;;0.40;;
13012;SDS011;22580;57.670;12.006;2023-07-20T09:25:15;0.73;;;0.30;;
13012;SDS011;22580;57.670;12.006;2023-07-20T09:27:45;1.55;;;0.30;;
13012;SDS011;22580;57.670;12.006;2023-07-20T09:30:15;0.52;;;0.30;;
13012;SDS011;22580;57.670;12.006;2023-07-20T09:32:44;0.50;;;0.38;;
13012;SDS011;22580;57.670;12.006;2023-07-20T09:35:14;1.02;;;0.40;;
13012;SDS011;22580;57.670;12.006;2023-07-20T09:37:45;0.30;;;0.30;;
13012;SDS011;22580;57.670;12.006;2023-07-20T09:40:16;0.57;;;0.28;;
13012;SDS011;22580;57.670;12.006;2023-07-20T09:42:44;0.30;;;0.30;;
13012;SDS011;22580;57.670;12.006;2023-07-20T09:45:11;0.95;;;0.30;;
13012;SDS011;22580;57.670;12.006;2023-07-20T09:47:38;1.50;;;0.50;;
13012;SDS011;22580;57.670;12.006;2023-07-20T09:50:06;1.05;;;0.50;;
13012;SDS011;22580;57.670;12.006;2023-07-20T09:52:38;0.93;;;0.38;;
13012;SDS011;22580;57.670;12.006;2023-07-20T09:55:06;0.30;;;0.30;;
13012;SDS011;22580;57.670;12.006;2023-07-20T09:57:35;0.68;;;0.30;;
13012;SDS011;22580;57.670;12.006;2023-07-20T10:00:02;0.80;;;0.50;;
13012;SDS011;22580;57.670;12.006;2023-07-20T10:02:37;0.57;;;0.35;;
13012;SDS011;22580;57.670;12.006;2023-07-20T10:05:08;0.73;;;0.50;;
13012;SDS011;22580;57.670;12.006;2023-07-20T10:07:40;0.50;;;0.30;;
13012;SDS011;22580;57.670;12.006;2023-07-20T10:10:14;0.60;;;0.40;;
13012;SDS011;22580;57.670;12.006;2023-07-20T10:12:43;1.20;;;0.40;;
13012;SDS011;22580;57.670;12.006;2023-07-20T10:15:13;1.45;;;0.43;;
13012;SDS011;22580;57.670;12.006;2023-07-20T10:17:47;0.70;;;0.30;;
13012;SDS011;22580;57.670;12.006;2023-07-20T10:20:21;0.32;;;0.20;;
13012;SDS011;22580;57.670;12.006;2023-07-20T10:22:49;0.22;;;0.20;;
13012;SDS011;22580;57.670;12.006;2023-07-20T10:25:22;0.55;;;0.35;;
13012;SDS011;22580;57.670;12.006;2023-07-20T10:27:49;0.88;;;0.20;;
13012;SDS011;22580;57.670;12.006;2023-07-20T10:30:17;0.70;;;0.50;;
13012;SDS011;22580;57.670;12.006;2023-07-20T10:32:45;0.68;;;0.30;;
13012;SDS011;22580;57.670;12.006;2023-07-20T10:35:13;1.95;;;0.40;;
13012;SDS011;22580;57.670;12.006;2023-07-20T10:37:53;0.43;;;0.30;;
13012;SDS011;22580;57.670;12.006;2023-07-20T10:40:24;0.82;;;0.30;;
13012;SDS011;22580;57.670;12.006;2023-07-20T10:42:56;0.32;;;0.30;;
13012;SDS011;22580;57.670;12.006;2023-07-20T10:45:32;1.05;;;0.47;;
13012;SDS011;22580;57.670;12.006;2023-07-20T10:48:14;0.70;;;0.50;;
13012;SDS011;22580;57.670;12.006;2023-07-20T10:50:44;0.75;;;0.22;;
13012;SDS011;22580;57.670;12.006;2023-07-20T10:53:15;0.73;;;0.50;;
13012;SDS011;22580;57.670;12.006;2023-07-20T10:55:42;1.77;;;0.50;;
13012;SDS011;22580;57.670;12.006;2023-07-20T10:58:12;0.75;;;0.40;;
13012;SDS011;22580;57.670;12.006;2023-07-20T11:01:00;1.13;;;0.40;;
13012;SDS011;22580;57.670;12.006;2023-07-20T11:03:32;0.85;;;0.32;;
13012;SDS011;22580;57.670;12.006;2023-07-20T11:06:29;0.95;;;0.30;;
13012;SDS011;22580;57.670;12.006;2023-07-20T11:09:06;0.50;;;0.30;;
13012;SDS011;22580;57.670;12.006;2023-07-20T11:11:37;0.52;;;0.30;;
13012;SDS011;22580;57.670;12.006;2023-07-20T11:14:06;0.93;;;0.40;;
13012;SDS011;22580;57.670;12.006;2023-07-20T11:16:36;0.90;;;0.40;;
13012;SDS011;22580;57.670;12.006;2023-07-20T11:19:05;0.75;;;0.35;;
13012;SDS011;22580;57.670;12.006;2023-07-20T11:21:36;0.30;;;0.30;;
13012;SDS011;22580;57.670;12.006;2023-07-20T11:24:06;0.30;;;0.20;;
13012;SDS011;22580;57.670;12.006;2023-07-20T11:26:41;0.50;;;0.40;;
13012;SDS011;22580;57.670;12.006;2023-07-20T11:29:10;0.85;;;0.50;;
13012;SDS011;22580;57.670;12.006;2023-07-20T11:31:37;0.50;;;0.30;;
13012;SDS011;22580;57.670;12.006;2023-07-20T11:34:04;1.95;;;0.50;;
13012;SDS011;22580;57.670;12.006;2023-07-20T11:36:33;0.20;;;0.20;;
13012;SDS011;22580;57.670;12.006;2023-07-20T11:39:00;0.22;;;0.20;;
13012;SDS011;22580;57.670;12.006;2023-07-20T11:41:31;0.60;;;0.30;;
13012;SDS011;22580;57.670;12.006;2023-07-20T11:43:59;0.38;;;0.17;;
13012;SDS011;22580;57.670;12.006;2023-07-20T11:46:27;1.25;;;0.38;;
13012;SDS011;22580;57.670;12.006;2023-07-20T11:48:56;0.90;;;0.30;;
13012;SDS011;22580;57.670;12.006;2023-07-20T11:51:26;0.45;;;0.20;;
13012;SDS011;22580;57.670;12.006;2023-07-20T11:53:55;0.30;;;0.20;;
13012;SDS011;22580;57.670;12.006;2023-07-20T11:56:22;1.13;;;0.30;;
13012;SDS011;22580;57.670;12.006;2023-07-20T11:58:53;0.95;;;0.35;;
13012;SDS011;22580;57.670;12.006;2023-07-20T12:01:22;0.43;;;0.30;;
13012;SDS011;22580;57.670;12.006;2023-07-20T12:03:50;0.40;;;0.20;;
13012;SDS011;22580;57.670;12.006;2023-07-20T12:06:17;0.57;;;0.20;;
13012;SDS011;22580;57.670;12.006;2023-07-20T12:08:44;1.10;;;0.43;;
13012;SDS011;22580;57.670;12.006;2023-07-20T12:11:13;0.45;;;0.30;;
13012;SDS011;22580;57.670;12.006;2023-07-20T12:13:41;0.80;;;0.40;;
13012;SDS011;22580;57.670;12.006;2023-07-20T12:16:12;0.73;;;0.30;;
13012;SDS011;22580;57.670;12.006;2023-07-20T12:18:41;0.77;;;0.32;;
13012;SDS011;22580;57.670;12.006;2023-07-20T12:21:10;0.63;;;0.30;;
13012;SDS011;22580;57.670;12.006;2023-07-20T12:23:38;1.13;;;0.40;;
13012;SDS011;22580;57.670;12.006;2023-07-20T12:26:06;1.67;;;0.45;;
13012;SDS011;22580;57.670;12.006;2023-07-20T12:28:35;1.30;;;0.40;;
13012;SDS011;22580;57.670;12.006;2023-07-20T12:31:07;0.50;;;0.40;;
13012;SDS011;22580;57.670;12.006;2023-07-20T12:33:36;0.88;;;0.40;;
13012;SDS011;22580;57.670;12.006;2023-07-20T12:36:05;1.13;;;0.45;;
13012;SDS011;22580;57.670;12.006;2023-07-20T12:38:32;2.35;;;0.40;;
13012;SDS011;22580;57.670;12.006;2023-07-20T12:41:00;0.70;;;0.40;;
13012;SDS011;22580;57.670;12.006;2023-07-20T12:43:27;1.27;;;0.77;;
13012;SDS011;22580;57.670;12.006;2023-07-20T12:46:05;0.68;;;0.40;;
13012;SDS011;22580;57.670;12.006;2023-07-20T12:48:37;1.33;;;0.35;;
13012;SDS011;22580;57.670;12.006;2023-07-20T12:51:07;1.05;;;0.50;;
13012;SDS011;22580;57.670;12.006;2023-07-20T12:53:34;1.58;;;0.65;;
13012;SDS011;22580;57.670;12.006;2023-07-20T12:56:02;1.23;;;0.60;;
13012;SDS011;22580;57.670;12.006;2023-07-20T12:58:30;0.70;;;0.52;;
13012;SDS011;22580;57.670;12.006;2023-07-20T13:00:57;0.88;;;0.40;;
13012;SDS011;22580;57.670;12.006;2023-07-20T13:03:24;0.85;;;0.75;;
13012;SDS011;22580;57.670;12.006;2023-07-20T13:05:53;1.77;;;0.77;;
13012;SDS011;22580;57.670;12.006;2023-07-20T13:08:20;1.75;;;0.70;;
13012;SDS011;22580;57.670;12.006;2023-07-20T13:10:50;1.17;;;0.55;;
13012;SDS011;22580;57.670;12.006;2023-07-20T13:13:17;0.85;;;0.60;;
13012;SDS011;22580;57.670;12.006;2023-07-20T13:15:45;0.57;;;0.38;;
13012;SDS011;22580;57.670;12.006;2023-07-20T13:18:13;1.67;;;0.40;;
13012;SDS011;22580;57.670;12.006;2023-07-20T13:20:39;1.00;;;0.55;;
13012;SDS011;22580;57.670;12.006;2023-07-20T13:23:08;1.45;;;0.50;;
13012;SDS011;22580;57.670;12.006;2023-07-20T13:25:37;2.97;;;0.60;;
13012;SDS011;22580;57.670;12.006;2023-07-20T13:28:05;0.55;;;0.45;;
13012;SDS011;22580;57.670;12.006;2023-07-20T13:30:32;1.83;;;0.70;;
13012;SDS011;22580;57.670;12.006;2023-07-20T13:32:59;0.63;;;0.40;;
13012;SDS011;22580;57.670;12.006;2023-07-20T13:35:26;1.65;;;0.60;;
13012;SDS011;22580;57.670;12.006;2023-07-20T13:37:53;1.88;;;0.82;;
13012;SDS011;22580;57.670;12.006;2023-07-20T13:40:26;1.17;;;0.50;;
13012;SDS011;22580;57.670;12.006;2023-07-20T13:42:53;2.00;;;0.80;;
13012;SDS011;22580;57.670;12.006;2023-07-20T13:45:23;1.55;;;0.70;;
13012;SDS011;22580;57.670;12.006;2023-07-20T13:47:50;1.45;;;0.70;;
13012;SDS011;22580;57.670;12.006;2023-07-20T13:50:17;1.42;;;0.60;;
13012;SDS011;22580;57.670;12.006;2023-07-20T13:52:44;1.73;;;0.70;;
13012;SDS011;22580;57.670;12.006;2023-07-20T13:55:11;1.75;;;0.60;;
13012;SDS011;22580;57.670;12.006;2023-07-20T13:57:39;1.05;;;0.50;;
13012;SDS011;22580;57.670;12.006;2023-07-20T14:00:07;2.75;;;0.70;;
13012;SDS011;22580;57.670;12.006;2023-07-20T14:02:36;3.47;;;1.02;;
13012;SDS011;22580;57.670;12.006;2023-07-20T14:05:03;1.70;;;0.77;;
13012;SDS011;22580;57.670;12.006;2023-07-20T14:07:31;1.83;;;0.70;;
13012;SDS011;22580;57.670;12.006;2023-07-20T14:09:58;0.95;;;0.57;;
13012;SDS011;22580;57.670;12.006;2023-07-20T14:12:25;1.05;;;0.77;;
13012;SDS011;22580;57.670;12.006;2023-07-20T14:14:54;1.88;;;0.60;;
13012;SDS011;22580;57.670;12.006;2023-07-20T14:17:21;2.72;;;0.85;;
13012;SDS011;22580;57.670;12.006;2023-07-20T14:19:48;1.30;;;0.55;;
13012;SDS011;22580;57.670;12.006;2023-07-20T14:22:16;0.73;;;0.52;;
13012;SDS011;22580;57.670;12.006;2023-07-20T14:24:43;2.15;;;0.90;;
13012;SDS011;22580;57.670;12.006;2023-07-20T14:27:11;2.47;;;0.80;;
13012;SDS011;22580;57.670;12.006;2023-07-20T14:29:38;1.73;;;0.80;;
13012;SDS011;22580;57.670;12.006;2023-07-20T14:32:07;1.80;;;1.00;;
13012;SDS011;22580;57.670;12.006;2023-07-20T14:34:34;2.05;;;1.20;;
13012;SDS011;22580;57.670;12.006;2023-07-20T14:37:01;2.65;;;1.10;;
13012;SDS011;22580;57.670;12.006;2023-07-20T14:39:30;2.25;;;1.15;;
13012;SDS011;22580;57.670;12.006;2023-07-20T14:41:57;2.60;;;1.05;;
13012;SDS011;22580;57.670;12.006;2023-07-20T14:44:24;2.35;;;0.95;;
13012;SDS011;22580;57.670;12.006;2023-07-20T14:46:51;1.75;;;0.98;;